Metar z połowy godziny Komunikat METAR ze strony awiacja.imgw.pl Metar G00 EPRZ METAR EPRZ 062330Z 21010KT 8000 -RA BKN007 02/01 Q1011 =